Terminal Aerodrome Forecast
Issued by NWS

Home | Current Version | Previous Version | Text Only | Print | Product List | Glossary On
Versions: 1 2 3 4 5 6 7 8 9 10 11 12 13 14 15 16
000
FTUS43 KGLD 220520
TAFMCK
TAF
KMCK 220520Z 2206/2306 17010KT P6SM SCT250
     FM220800 17007KT 4SM BR SCT250
     FM221500 24010KT P6SM -SHRA BKN060 BKN120
     FM221800 32010KT P6SM -SHRA BKN060 BKN120
     FM222100 32010KT P6SM BKN200
     FM230000 07005KT P6SM BKN250=

USA.gov is the U.S. government's official web portal to all federal, state and local government web resources and services.